sensor_id;sensor_type;location;lat;lon;timestamp;pressure;altitude;pressure_sealevel;temperature
62107;BMP280;48087;32.600;-97.100;2022-11-20T00:04:31;;;;4.222180000000001
62107;BMP280;48087;32.600;-97.100;2022-11-20T00:09:35;;;;3.9999600000000015
62107;BMP280;48087;32.600;-97.100;2022-11-20T00:14:39;;;;3.7777399999999983
62107;BMP280;48087;32.600;-97.100;2022-11-20T00:19:43;;;;3.7777399999999983
62107;BMP280;48087;32.600;-97.100;2022-11-20T00:24:46;;;;3.611075
62107;BMP280;48087;32.600;-97.100;2022-11-20T00:29:51;;;;3.388855000000001
62107;BMP280;48087;32.600;-97.100;2022-11-20T00:34:55;;;;3.1666350000000016
62107;BMP280;48087;32.600;-97.100;2022-11-20T00:39:59;;;;3.055525
62107;BMP280;48087;32.600;-97.100;2022-11-20T00:45:03;;;;2.9999699999999994
62107;BMP280;48087;32.600;-97.100;2022-11-20T00:50:07;;;;3.499964999999998
62107;BMP280;48087;32.600;-97.100;2022-11-20T00:55:10;;;;3.499964999999998
62107;BMP280;48087;32.600;-97.100;2022-11-20T01:00:15;;;;3.3333
62107;BMP280;48087;32.600;-97.100;2022-11-20T01:05:19;;;;3.277744999999999
62107;BMP280;48087;32.600;-97.100;2022-11-20T01:10:23;;;;3.1666350000000016
62107;BMP280;48087;32.600;-97.100;2022-11-20T01:15:27;;;;3.2221899999999986
62107;BMP280;48087;32.600;-97.100;2022-11-20T01:20:33;;;;3.388855000000001
62107;BMP280;48087;32.600;-97.100;2022-11-20T01:25:34;;;;3.277744999999999
62107;BMP280;48087;32.600;-97.100;2022-11-20T01:30:38;;;;3.2221899999999986
62107;BMP280;48087;32.600;-97.100;2022-11-20T01:35:42;;;;3.277744999999999
62107;BMP280;48087;32.600;-97.100;2022-11-20T01:40:53;;;;3.4444100000000013
62107;BMP280;48087;32.600;-97.100;2022-11-20T01:45:56;;;;3.3333
62107;BMP280;48087;32.600;-97.100;2022-11-20T01:50:55;;;;3.277744999999999
62107;BMP280;48087;32.600;-97.100;2022-11-20T01:55:59;;;;3.1666350000000016
62107;BMP280;48087;32.600;-97.100;2022-11-20T02:01:03;;;;3.1666350000000016
62107;BMP280;48087;32.600;-97.100;2022-11-20T02:06:10;;;;3.2221899999999986
62107;BMP280;48087;32.600;-97.100;2022-11-20T02:11:10;;;;3.1110800000000007
62107;BMP280;48087;32.600;-97.100;2022-11-20T02:16:17;;;;3.055525
62107;BMP280;48087;32.600;-97.100;2022-11-20T02:21:21;;;;3.055525
62107;BMP280;48087;32.600;-97.100;2022-11-20T02:26:23;;;;3.055525
62107;BMP280;48087;32.600;-97.100;2022-11-20T02:31:27;;;;3.055525
62107;BMP280;48087;32.600;-97.100;2022-11-20T02:36:30;;;;2.9999699999999994
62107;BMP280;48087;32.600;-97.100;2022-11-20T02:41:36;;;;2.77775
62107;BMP280;48087;32.600;-97.100;2022-11-20T02:46:38;;;;2.77775
62107;BMP280;48087;32.600;-97.100;2022-11-20T02:51:42;;;;2.9444149999999985
62107;BMP280;48087;32.600;-97.100;2022-11-20T02:56:46;;;;2.9999699999999994
62107;BMP280;48087;32.600;-97.100;2022-11-20T03:01:51;;;;2.8888600000000015
62107;BMP280;48087;32.600;-97.100;2022-11-20T03:06:54;;;;2.9444149999999985
62107;BMP280;48087;32.600;-97.100;2022-11-20T03:11:58;;;;2.77775
62107;BMP280;48087;32.600;-97.100;2022-11-20T03:17:02;;;;2.8333050000000006
62107;BMP280;48087;32.600;-97.100;2022-11-20T03:22:06;;;;2.9444149999999985
62107;BMP280;48087;32.600;-97.100;2022-11-20T03:27:10;;;;2.9444149999999985
62107;BMP280;48087;32.600;-97.100;2022-11-20T03:32:14;;;;2.8333050000000006
62107;BMP280;48087;32.600;-97.100;2022-11-20T03:37:18;;;;2.8333050000000006
62107;BMP280;48087;32.600;-97.100;2022-11-20T03:42:22;;;;2.5555300000000005
62107;BMP280;48087;32.600;-97.100;2022-11-20T03:47:26;;;;2.277755000000001
62107;BMP280;48087;32.600;-97.100;2022-11-20T03:52:30;;;;2.3333100000000013
62107;BMP280;48087;32.600;-97.100;2022-11-20T03:57:34;;;;2.499975
62107;BMP280;48087;32.600;-97.100;2022-11-20T04:02:38;;;;2.3888649999999982
62107;BMP280;48087;32.600;-97.100;2022-11-20T04:07:42;;;;2.277755000000001
62107;BMP280;48087;32.600;-97.100;2022-11-20T04:12:47;;;;2.0555350000000017
62107;BMP280;48087;32.600;-97.100;2022-11-20T04:17:50;;;;1.8888699999999992
62107;BMP280;48087;32.600;-97.100;2022-11-20T04:22:54;;;;2.2222
62107;BMP280;48087;32.600;-97.100;2022-11-20T04:27:58;;;;2.444419999999999
62107;BMP280;48087;32.600;-97.100;2022-11-20T04:33:02;;;;2.5555300000000005
62107;BMP280;48087;32.600;-97.100;2022-11-20T04:38:06;;;;2.5555300000000005
62107;BMP280;48087;32.600;-97.100;2022-11-20T04:43:10;;;;2.444419999999999
62107;BMP280;48087;32.600;-97.100;2022-11-20T04:48:14;;;;2.2222
62107;BMP280;48087;32.600;-97.100;2022-11-20T04:53:18;;;;2.0555350000000017
62107;BMP280;48087;32.600;-97.100;2022-11-20T04:58:22;;;;2.3333100000000013
62107;BMP280;48087;32.600;-97.100;2022-11-20T05:03:26;;;;2.499975
62107;BMP280;48087;32.600;-97.100;2022-11-20T05:08:30;;;;2.7221949999999993
62107;BMP280;48087;32.600;-97.100;2022-11-20T05:13:35;;;;2.77775
62107;BMP280;48087;32.600;-97.100;2022-11-20T05:18:38;;;;2.77775
62107;BMP280;48087;32.600;-97.100;2022-11-20T05:23:42;;;;2.9444149999999985
62107;BMP280;48087;32.600;-97.100;2022-11-20T05:28:46;;;;2.9999699999999994
62107;BMP280;48087;32.600;-97.100;2022-11-20T05:33:50;;;;2.9999699999999994
62107;BMP280;48087;32.600;-97.100;2022-11-20T05:38:54;;;;2.8333050000000006
62107;BMP280;48087;32.600;-97.100;2022-11-20T05:43:58;;;;2.7221949999999993
62107;BMP280;48087;32.600;-97.100;2022-11-20T05:49:01;;;;2.444419999999999
62107;BMP280;48087;32.600;-97.100;2022-11-20T05:54:06;;;;2.277755000000001
62107;BMP280;48087;32.600;-97.100;2022-11-20T05:59:10;;;;1.9999800000000008
62107;BMP280;48087;32.600;-97.100;2022-11-20T06:04:14;;;;1.8888699999999992
62107;BMP280;48087;32.600;-97.100;2022-11-20T06:09:18;;;;1.8333149999999985
62107;BMP280;48087;32.600;-97.100;2022-11-20T06:14:22;;;;1.7222050000000007
62107;BMP280;48087;32.600;-97.100;2022-11-20T06:19:25;;;;1.388875
62107;BMP280;48087;32.600;-97.100;2022-11-20T06:24:30;;;;1.0555449999999993
62107;BMP280;48087;32.600;-97.100;2022-11-20T06:29:34;;;;0.8888800000000008
62107;BMP280;48087;32.600;-97.100;2022-11-20T06:34:38;;;;0.833325
62107;BMP280;48087;32.600;-97.100;2022-11-20T06:39:42;;;;0.6666600000000016
62107;BMP280;48087;32.600;-97.100;2022-11-20T06:44:46;;;;1.0555449999999993
62107;BMP280;48087;32.600;-97.100;2022-11-20T06:49:50;;;;1.1111
62107;BMP280;48087;32.600;-97.100;2022-11-20T06:54:54;;;;0.9444350000000016
62107;BMP280;48087;32.600;-97.100;2022-11-20T06:59:58;;;;0.4999949999999992
62107;BMP280;48087;32.600;-97.100;2022-11-20T07:05:02;;;;0.3333300000000008
62107;BMP280;48087;32.600;-97.100;2022-11-20T07:10:06;;;;0.2222199999999992
62107;BMP280;48087;32.600;-97.100;2022-11-20T07:15:10;;;;0.11111000000000158
62107;BMP280;48087;32.600;-97.100;2022-11-20T07:20:14;;;;0.16666499999999843
62107;BMP280;48087;32.600;-97.100;2022-11-20T07:25:18;;;;-0.05555500000000079
62107;BMP280;48087;32.600;-97.100;2022-11-20T07:30:21;;;;0.2222199999999992
62107;BMP280;48087;32.600;-97.100;2022-11-20T07:35:26;;;;0.3333300000000008
62107;BMP280;48087;32.600;-97.100;2022-11-20T07:40:29;;;;0.3888850000000016
62107;BMP280;48087;32.600;-97.100;2022-11-20T07:45:34;;;;0.277775
62107;BMP280;48087;32.600;-97.100;2022-11-20T07:50:38;;;;0.277775
62107;BMP280;48087;32.600;-97.100;2022-11-20T07:55:42;;;;0.16666499999999843
62107;BMP280;48087;32.600;-97.100;2022-11-20T08:00:45;;;;0
62107;BMP280;48087;32.600;-97.100;2022-11-20T08:05:50;;;;-0.05555500000000079
62107;BMP280;48087;32.600;-97.100;2022-11-20T08:10:53;;;;0.05555500000000079
62107;BMP280;48087;32.600;-97.100;2022-11-20T08:15:58;;;;-0.05555500000000079
62107;BMP280;48087;32.600;-97.100;2022-11-20T08:21:02;;;;-0.05555500000000079
62107;BMP280;48087;32.600;-97.100;2022-11-20T08:26:06;;;;-0.05555500000000079
62107;BMP280;48087;32.600;-97.100;2022-11-20T08:31:09;;;;-0.05555500000000079
62107;BMP280;48087;32.600;-97.100;2022-11-20T08:36:14;;;;-0.05555500000000079
62107;BMP280;48087;32.600;-97.100;2022-11-20T08:41:17;;;;-0.2222199999999992
62107;BMP280;48087;32.600;-97.100;2022-11-20T08:46:22;;;;-0.2222199999999992
62107;BMP280;48087;32.600;-97.100;2022-11-20T08:51:25;;;;-0.4999949999999992
62107;BMP280;48087;32.600;-97.100;2022-11-20T08:56:30;;;;-0.7777699999999992
62107;BMP280;48087;32.600;-97.100;2022-11-20T09:01:34;;;;-0.7777699999999992
62107;BMP280;48087;32.600;-97.100;2022-11-20T09:06:38;;;;-0.1111099999999996
62107;BMP280;48087;32.600;-97.100;2022-11-20T09:11:41;;;;-0.1111099999999996
62107;BMP280;48087;32.600;-97.100;2022-11-20T09:16:45;;;;-0.277775
62107;BMP280;48087;32.600;-97.100;2022-11-20T09:21:49;;;;-0.4999949999999992
62107;BMP280;48087;32.600;-97.100;2022-11-20T09:26:53;;;;-0.833325
62107;BMP280;48087;32.600;-97.100;2022-11-20T09:31:57;;;;-1.1666550000000007
62107;BMP280;48087;32.600;-97.100;2022-11-20T09:37:02;;;;-1.4999849999999997
62107;BMP280;48087;32.600;-97.100;2022-11-20T09:42:17;;;;-1.2222099999999996
62107;BMP280;48087;32.600;-97.100;2022-11-20T09:47:11;;;;-1.1666550000000007
62107;BMP280;48087;32.600;-97.100;2022-11-20T09:52:15;;;;-0.9444349999999996
62107;BMP280;48087;32.600;-97.100;2022-11-20T09:57:18;;;;-0.833325
62107;BMP280;48087;32.600;-97.100;2022-11-20T10:02:25;;;;-1.0555449999999993
62107;BMP280;48087;32.600;-97.100;2022-11-20T10:07:27;;;;-1.0555449999999993
62107;BMP280;48087;32.600;-97.100;2022-11-20T10:12:31;;;;-1.0555449999999993
62107;BMP280;48087;32.600;-97.100;2022-11-20T10:17:41;;;;-1.2222099999999996
62107;BMP280;48087;32.600;-97.100;2022-11-20T10:22:41;;;;-1.2222099999999996
62107;BMP280;48087;32.600;-97.100;2022-11-20T10:27:47;;;;-1.2222099999999996
62107;BMP280;48087;32.600;-97.100;2022-11-20T10:32:46;;;;-1.4444300000000008
62107;BMP280;48087;32.600;-97.100;2022-11-20T10:37:51;;;;-1.4444300000000008
62107;BMP280;48087;32.600;-97.100;2022-11-20T10:42:55;;;;-1.2777650000000003
62107;BMP280;48087;32.600;-97.100;2022-11-20T10:48:00;;;;-1.1111
62107;BMP280;48087;32.600;-97.100;2022-11-20T10:53:02;;;;-0.8888800000000008
62107;BMP280;48087;32.600;-97.100;2022-11-20T10:58:08;;;;-0.9999900000000004
62107;BMP280;48087;32.600;-97.100;2022-11-20T11:03:14;;;;-0.7777699999999992
62107;BMP280;48087;32.600;-97.100;2022-11-20T11:08:14;;;;-0.6666599999999996
62107;BMP280;48087;32.600;-97.100;2022-11-20T11:13:19;;;;-0.6111050000000008
62107;BMP280;48087;32.600;-97.100;2022-11-20T11:18:24;;;;-0.55555
62107;BMP280;48087;32.600;-97.100;2022-11-20T11:23:28;;;;-0.6111050000000008
62107;BMP280;48087;32.600;-97.100;2022-11-20T11:28:29;;;;-0.7222150000000004
62107;BMP280;48087;32.600;-97.100;2022-11-20T11:33:33;;;;-0.7222150000000004
62107;BMP280;48087;32.600;-97.100;2022-11-20T11:38:38;;;;-0.7777699999999992
62107;BMP280;48087;32.600;-97.100;2022-11-20T11:43:48;;;;-0.7777699999999992
62107;BMP280;48087;32.600;-97.100;2022-11-20T11:48:54;;;;-0.9444349999999996
62107;BMP280;48087;32.600;-97.100;2022-11-20T11:53:49;;;;-1.0555449999999993
62107;BMP280;48087;32.600;-97.100;2022-11-20T11:58:53;;;;-1.2777650000000003
62107;BMP280;48087;32.600;-97.100;2022-11-20T12:03:59;;;;-1.4999849999999997
62107;BMP280;48087;32.600;-97.100;2022-11-20T12:09:03;;;;-1.7222050000000007
62107;BMP280;48087;32.600;-97.100;2022-11-20T12:14:09;;;;-1.7222050000000007
62107;BMP280;48087;32.600;-97.100;2022-11-20T12:19:11;;;;-1.7777599999999996
62107;BMP280;48087;32.600;-97.100;2022-11-20T12:24:20;;;;-1.7777599999999996
62107;BMP280;48087;32.600;-97.100;2022-11-20T12:29:18;;;;-1.8333150000000002
62107;BMP280;48087;32.600;-97.100;2022-11-20T12:34:25;;;;-1.8888699999999992
62107;BMP280;48087;32.600;-97.100;2022-11-20T12:39:28;;;;-2.1110900000000004
62107;BMP280;48087;32.600;-97.100;2022-11-20T12:44:33;;;;-2.2222
62107;BMP280;48087;32.600;-97.100;2022-11-20T12:49:34;;;;-2.277755000000001
62107;BMP280;48087;32.600;-97.100;2022-11-20T12:54:43;;;;-2.2222
62107;BMP280;48087;32.600;-97.100;2022-11-20T12:59:49;;;;-2.1110900000000004
62107;BMP280;48087;32.600;-97.100;2022-11-20T13:04:48;;;;-2.2222
62107;BMP280;48087;32.600;-97.100;2022-11-20T13:09:49;;;;-2.1110900000000004
62107;BMP280;48087;32.600;-97.100;2022-11-20T13:14:53;;;;-2.166644999999999
62107;BMP280;48087;32.600;-97.100;2022-11-20T13:19:57;;;;-1.8333150000000002
62107;BMP280;48087;32.600;-97.100;2022-11-20T13:25:01;;;;-1.4444300000000008
62107;BMP280;48087;32.600;-97.100;2022-11-20T13:30:12;;;;-1.2777650000000003
62107;BMP280;48087;32.600;-97.100;2022-11-20T13:35:09;;;;-0.9999900000000004
62107;BMP280;48087;32.600;-97.100;2022-11-20T13:40:20;;;;-0.6666599999999996
62107;BMP280;48087;32.600;-97.100;2022-11-20T13:45:21;;;;-0.3888849999999996
62107;BMP280;48087;32.600;-97.100;2022-11-20T13:50:26;;;;-0.1666650000000004
62107;BMP280;48087;32.600;-97.100;2022-11-20T13:55:26;;;;0.2222199999999992
62107;BMP280;48087;32.600;-97.100;2022-11-20T14:00:29;;;;0.4999949999999992
62107;BMP280;48087;32.600;-97.100;2022-11-20T14:05:34;;;;0.7777699999999992
62107;BMP280;48087;32.600;-97.100;2022-11-20T14:10:37;;;;1.1111
62107;BMP280;48087;32.600;-97.100;2022-11-20T14:15:40;;;;1.3333199999999992
62107;BMP280;48087;32.600;-97.100;2022-11-20T14:20:45;;;;1.4999850000000015
62107;BMP280;48087;32.600;-97.100;2022-11-20T14:25:49;;;;1.66665
62107;BMP280;48087;32.600;-97.100;2022-11-20T14:30:53;;;;1.9444249999999998
62107;BMP280;48087;32.600;-97.100;2022-11-20T14:35:57;;;;2.166644999999999
62107;BMP280;48087;32.600;-97.100;2022-11-20T14:41:09;;;;2.3888649999999982
62107;BMP280;48087;32.600;-97.100;2022-11-20T14:46:05;;;;2.6110850000000014
62107;BMP280;48087;32.600;-97.100;2022-11-20T14:51:09;;;;2.77775
62107;BMP280;48087;32.600;-97.100;2022-11-20T14:56:12;;;;2.9444149999999985
62107;BMP280;48087;32.600;-97.100;2022-11-20T15:01:18;;;;3.055525
62107;BMP280;48087;32.600;-97.100;2022-11-20T15:06:25;;;;3.2221899999999986
62107;BMP280;48087;32.600;-97.100;2022-11-20T15:11:27;;;;3.499964999999998
62107;BMP280;48087;32.600;-97.100;2022-11-20T15:16:28;;;;3.6666300000000005
62107;BMP280;48087;32.600;-97.100;2022-11-20T15:21:33;;;;3.9444050000000006
62107;BMP280;48087;32.600;-97.100;2022-11-20T15:26:36;;;;4.222180000000001
62107;BMP280;48087;32.600;-97.100;2022-11-20T15:31:40;;;;4.277735000000002
62107;BMP280;48087;32.600;-97.100;2022-11-20T15:36:45;;;;4.555510000000002
62107;BMP280;48087;32.600;-97.100;2022-11-20T15:41:49;;;;4.611064999999998
62107;BMP280;48087;32.600;-97.100;2022-11-20T15:46:52;;;;4.777730000000001
62107;BMP280;48087;32.600;-97.100;2022-11-20T15:51:57;;;;4.888839999999998
62107;BMP280;48087;32.600;-97.100;2022-11-20T15:57:00;;;;5.222169999999999
62107;BMP280;48087;32.600;-97.100;2022-11-20T16:02:07;;;;5.4443899999999985
62107;BMP280;48087;32.600;-97.100;2022-11-20T16:07:09;;;;5.5555
62107;BMP280;48087;32.600;-97.100;2022-11-20T16:12:13;;;;5.666610000000001
62107;BMP280;48087;32.600;-97.100;2022-11-20T16:17:17;;;;5.944385000000001
62107;BMP280;48087;32.600;-97.100;2022-11-20T16:22:21;;;;6.2221600000000015
62107;BMP280;48087;32.600;-97.100;2022-11-20T16:27:24;;;;6.166605000000001
62107;BMP280;48087;32.600;-97.100;2022-11-20T16:32:28;;;;6.499935000000002
62107;BMP280;48087;32.600;-97.100;2022-11-20T16:37:33;;;;7.166594999999999
62107;BMP280;48087;32.600;-97.100;2022-11-20T16:42:37;;;;7.055485000000002
62107;BMP280;48087;32.600;-97.100;2022-11-20T16:47:40;;;;7.22215
62107;BMP280;48087;32.600;-97.100;2022-11-20T16:52:45;;;;7.444369999999999
62107;BMP280;48087;32.600;-97.100;2022-11-20T16:57:48;;;;7.611035000000001
62107;BMP280;48087;32.600;-97.100;2022-11-20T17:02:52;;;;7.722144999999999
62107;BMP280;48087;32.600;-97.100;2022-11-20T17:07:57;;;;7.944364999999999
62107;BMP280;48087;32.600;-97.100;2022-11-20T17:13:00;;;;8.055475
62107;BMP280;48087;32.600;-97.100;2022-11-20T17:18:05;;;;8.611025
62107;BMP280;48087;32.600;-97.100;2022-11-20T17:23:09;;;;9.055464999999998
62107;BMP280;48087;32.600;-97.100;2022-11-20T17:28:12;;;;9.44435
62107;BMP280;48087;32.600;-97.100;2022-11-20T17:33:16;;;;9.555460000000002
62107;BMP280;48087;32.600;-97.100;2022-11-20T17:38:20;;;;10.222119999999999
62107;BMP280;48087;32.600;-97.100;2022-11-20T17:43:25;;;;10.499894999999999
62107;BMP280;48087;32.600;-97.100;2022-11-20T17:48:29;;;;10.55545
62107;BMP280;48087;32.600;-97.100;2022-11-20T17:53:33;;;;10.722114999999999
62107;BMP280;48087;32.600;-97.100;2022-11-20T17:58:36;;;;11.610994999999999
62107;BMP280;48087;32.600;-97.100;2022-11-20T18:03:40;;;;12.166545
62107;BMP280;48087;32.600;-97.100;2022-11-20T18:08:45;;;;11.944325
62107;BMP280;48087;32.600;-97.100;2022-11-20T18:13:49;;;;12.44432
62107;BMP280;48087;32.600;-97.100;2022-11-20T18:18:53;;;;12.277655000000001
62107;BMP280;48087;32.600;-97.100;2022-11-20T18:23:56;;;;11.610994999999999
62107;BMP280;48087;32.600;-97.100;2022-11-20T18:29:00;;;;11.999880000000001
62107;BMP280;48087;32.600;-97.100;2022-11-20T18:34:04;;;;12.499875
62107;BMP280;48087;32.600;-97.100;2022-11-20T18:39:09;;;;12.610985000000001
62107;BMP280;48087;32.600;-97.100;2022-11-20T18:44:13;;;;12.166545
62107;BMP280;48087;32.600;-97.100;2022-11-20T18:49:16;;;;11.277664999999999
62107;BMP280;48087;32.600;-97.100;2022-11-20T18:54:20;;;;12.055435000000001
62107;BMP280;48087;32.600;-97.100;2022-11-20T18:59:24;;;;12.277655000000001
62107;BMP280;48087;32.600;-97.100;2022-11-20T19:04:28;;;;12.499875
62107;BMP280;48087;32.600;-97.100;2022-11-20T19:09:32;;;;12.44432
62107;BMP280;48087;32.600;-97.100;2022-11-20T19:14:36;;;;12.610985000000001
62107;BMP280;48087;32.600;-97.100;2022-11-20T19:19:40;;;;11.722105
62107;BMP280;48087;32.600;-97.100;2022-11-20T19:24:44;;;;11.999880000000001
62107;BMP280;48087;32.600;-97.100;2022-11-20T19:29:48;;;;11.777660000000001
62107;BMP280;48087;32.600;-97.100;2022-11-20T19:34:52;;;;11.722105
62107;BMP280;48087;32.600;-97.100;2022-11-20T19:39:56;;;;11.277664999999999
62107;BMP280;48087;32.600;-97.100;2022-11-20T19:45:00;;;;10.833225
62107;BMP280;48087;32.600;-97.100;2022-11-20T19:50:04;;;;10.944335
62107;BMP280;48087;32.600;-97.100;2022-11-20T19:55:08;;;;10.944335
62107;BMP280;48087;32.600;-97.100;2022-11-20T20:00:12;;;;11.166555
62107;BMP280;48087;32.600;-97.100;2022-11-20T20:05:16;;;;10.999889999999999
62107;BMP280;48087;32.600;-97.100;2022-11-20T20:10:20;;;;11.055444999999999
62107;BMP280;48087;32.600;-97.100;2022-11-20T20:15:24;;;;10.499894999999999
62107;BMP280;48087;32.600;-97.100;2022-11-20T20:20:28;;;;10.66656
62107;BMP280;48087;32.600;-97.100;2022-11-20T20:25:32;;;;11.055444999999999
62107;BMP280;48087;32.600;-97.100;2022-11-20T20:30:36;;;;11.166555
62107;BMP280;48087;32.600;-97.100;2022-11-20T20:35:40;;;;11.111
62107;BMP280;48087;32.600;-97.100;2022-11-20T20:40:45;;;;11.22211
62107;BMP280;48087;32.600;-97.100;2022-11-20T20:45:48;;;;11.055444999999999
62107;BMP280;48087;32.600;-97.100;2022-11-20T20:50:52;;;;10.777669999999999
62107;BMP280;48087;32.600;-97.100;2022-11-20T20:55:57;;;;10.611005
62107;BMP280;48087;32.600;-97.100;2022-11-20T21:01:00;;;;10.611005
62107;BMP280;48087;32.600;-97.100;2022-11-20T21:06:04;;;;10.611005
62107;BMP280;48087;32.600;-97.100;2022-11-20T21:11:08;;;;10.611005
62107;BMP280;48087;32.600;-97.100;2022-11-20T21:16:12;;;;10.66656
62107;BMP280;48087;32.600;-97.100;2022-11-20T21:21:16;;;;10.55545
62107;BMP280;48087;32.600;-97.100;2022-11-20T21:26:20;;;;10.499894999999999
62107;BMP280;48087;32.600;-97.100;2022-11-20T21:31:24;;;;10.444339999999999
62107;BMP280;48087;32.600;-97.100;2022-11-20T21:36:28;;;;10.33323
62107;BMP280;48087;32.600;-97.100;2022-11-20T21:41:31;;;;10.222119999999999
62107;BMP280;48087;32.600;-97.100;2022-11-20T21:46:37;;;;10.222119999999999
62107;BMP280;48087;32.600;-97.100;2022-11-20T21:51:39;;;;10.277675
62107;BMP280;48087;32.600;-97.100;2022-11-20T21:56:44;;;;10.111010000000002
62107;BMP280;48087;32.600;-97.100;2022-11-20T22:01:47;;;;10.111010000000002
62107;BMP280;48087;32.600;-97.100;2022-11-20T22:06:52;;;;9.9999
62107;BMP280;48087;32.600;-97.100;2022-11-20T22:11:55;;;;9.888789999999998
62107;BMP280;48087;32.600;-97.100;2022-11-20T22:16:59;;;;9.77768
62107;BMP280;48087;32.600;-97.100;2022-11-20T22:22:03;;;;9.722125
62107;BMP280;48087;32.600;-97.100;2022-11-20T22:27:09;;;;9.666569999999998
62107;BMP280;48087;32.600;-97.100;2022-11-20T22:32:11;;;;9.611014999999998
62107;BMP280;48087;32.600;-97.100;2022-11-20T22:37:15;;;;9.499905
62107;BMP280;48087;32.600;-97.100;2022-11-20T22:42:19;;;;9.388794999999998
62107;BMP280;48087;32.600;-97.100;2022-11-20T22:47:23;;;;9.277685000000002
62107;BMP280;48087;32.600;-97.100;2022-11-20T22:52:27;;;;9.11102
62107;BMP280;48087;32.600;-97.100;2022-11-20T22:57:32;;;;9.11102
62107;BMP280;48087;32.600;-97.100;2022-11-20T23:02:35;;;;9.11102
62107;BMP280;48087;32.600;-97.100;2022-11-20T23:07:39;;;;9.11102
62107;BMP280;48087;32.600;-97.100;2022-11-20T23:12:43;;;;8.944355
62107;BMP280;48087;32.600;-97.100;2022-11-20T23:17:47;;;;8.833245
62107;BMP280;48087;32.600;-97.100;2022-11-20T23:22:51;;;;8.777689999999998
62107;BMP280;48087;32.600;-97.100;2022-11-20T23:27:56;;;;8.722135000000002
62107;BMP280;48087;32.600;-97.100;2022-11-20T23:32:59;;;;8.55547
62107;BMP280;48087;32.600;-97.100;2022-11-20T23:38:03;;;;8.499914999999998
62107;BMP280;48087;32.600;-97.100;2022-11-20T23:43:07;;;;8.33325
62107;BMP280;48087;32.600;-97.100;2022-11-20T23:48:11;;;;8.111030000000001
62107;BMP280;48087;32.600;-97.100;2022-11-20T23:53:15;;;;7.833255
62107;BMP280;48087;32.600;-97.100;2022-11-20T23:58:20;;;;7.722144999999999
